Time;durP1;ratioP1;P1;durP2;ratioP2;P2;SDS_P1;SDS_P2;PMS_P1;PMS_P2;Temp;Humidity;BMP_temperature;BMP_pressure;BME280_temperature;BME280_humidity;BME280_pressure;Samples;Min_cycle;Max_cycle;Signal;HPM_P1;HPM_P2
2021/12/02 00:01:20;;;;;;;36.95;3.28;;;;;;;;;;5061819;28;20032;-60
2021/12/02 00:03:47;;;;;;;16.65;2.95;;;;;;;;;;5062103;28;20027;-61
2021/12/02 00:06:15;;;;;;;30.90;3.53;;;;;;;;;;5057350;28;20119;-59
2021/12/02 00:08:42;;;;;;;20.48;3.05;;;;;;;;;;5051541;28;20391;-60
2021/12/02 00:11:08;;;;;;;22.92;2.88;;;;;;;;;;5062326;28;20028;-60
2021/12/02 00:16:53;;;;;;;16.38;3.25;;;;;;;;;;5043723;28;20697;-60
2021/12/02 00:22:03;;;;;;;22.30;3.58;;;;;;;;;;5063005;28;20070;-61
2021/12/02 00:24:34;;;;;;;26.83;4.50;;;;;;;;;;5058422;28;20136;-61
2021/12/02 00:27:03;;;;;;;24.52;3.80;;;;;;;;;;5047299;28;20043;-61
2021/12/02 00:29:31;;;;;;;20.20;4.30;;;;;;;;;;5057915;28;20073;-61
2021/12/02 00:32:01;;;;;;;28.38;3.58;;;;;;;;;;5059119;28;20028;-61
2021/12/02 00:34:28;;;;;;;21.08;3.75;;;;;;;;;;5061670;28;20031;-61
2021/12/02 00:36:56;;;;;;;28.92;3.92;;;;;;;;;;5049667;28;20031;-60
2021/12/02 00:39:21;;;;;;;16.63;3.25;;;;;;;;;;5054965;28;20132;-60
2021/12/02 00:41:47;;;;;;;17.52;4.00;;;;;;;;;;5055879;28;20123;-61
2021/12/02 00:44:14;;;;;;;16.95;3.65;;;;;;;;;;5057711;28;20036;-61
2021/12/02 00:46:40;;;;;;;17.52;3.10;;;;;;;;;;5053126;28;20033;-61
2021/12/02 00:49:11;;;;;;;16.40;3.47;;;;;;;;;;5058487;28;20045;-62
2021/12/02 00:51:39;;;;;;;14.00;3.53;;;;;;;;;;5060329;28;20039;-61
2021/12/02 00:54:07;;;;;;;20.55;3.05;;;;;;;;;;5067537;28;20305;-61
2021/12/02 00:56:34;;;;;;;18.52;2.85;;;;;;;;;;5058851;28;20055;-60
2021/12/02 00:59:00;;;;;;;22.52;4.10;;;;;;;;;;5052263;28;20115;-60
2021/12/02 01:01:34;;;;;;;14.57;2.85;;;;;;;;;;5059640;28;20140;-61
2021/12/02 01:04:01;;;;;;;18.73;3.25;;;;;;;;;;5063143;28;20036;-61
2021/12/02 01:06:27;;;;;;;8.75;3.55;;;;;;;;;;5056909;28;20067;-61
2021/12/02 01:08:53;;;;;;;19.13;3.30;;;;;;;;;;5058845;28;20597;-61
2021/12/02 01:11:20;;;;;;;23.00;3.30;;;;;;;;;;5068286;28;20041;-61
2021/12/02 01:13:46;;;;;;;17.75;3.20;;;;;;;;;;5062764;28;20040;-61
2021/12/02 01:16:13;;;;;;;27.33;2.90;;;;;;;;;;5056928;28;20041;-60
2021/12/02 01:18:40;;;;;;;34.05;3.53;;;;;;;;;;5057006;28;20043;-60
2021/12/02 01:21:06;;;;;;;15.48;2.20;;;;;;;;;;5067817;28;20181;-61
2021/12/02 01:23:34;;;;;;;10.93;2.25;;;;;;;;;;5066155;28;20036;-60
2021/12/02 01:26:05;;;;;;;19.83;3.92;;;;;;;;;;5064062;28;20101;-60
2021/12/02 01:28:34;;;;;;;15.77;2.28;;;;;;;;;;5071577;28;20051;-60
2021/12/02 01:31:00;;;;;;;16.63;2.30;;;;;;;;;;5061373;28;20515;-61
2021/12/02 01:33:27;;;;;;;21.48;3.45;;;;;;;;;;5060256;28;20040;-61
2021/12/02 01:35:59;;;;;;;26.42;3.08;;;;;;;;;;5066221;28;20028;-60
2021/12/02 01:38:26;;;;;;;18.27;3.47;;;;;;;;;;5053242;28;20028;-60
2021/12/02 01:40:54;;;;;;;31.27;4.32;;;;;;;;;;5063470;28;20311;-60
2021/12/02 01:43:22;;;;;;;8.85;2.17;;;;;;;;;;5059713;28;20039;-60
2021/12/02 01:45:48;;;;;;;20.92;2.92;;;;;;;;;;5062955;28;20038;-61
2021/12/02 01:48:24;;;;;;;13.20;1.98;;;;;;;;;;5067144;28;20143;-61
2021/12/02 01:51:05;;;;;;;14.88;3.17;;;;;;;;;;5064868;28;20487;-62
2021/12/02 01:53:34;;;;;;;23.23;2.72;;;;;;;;;;5063015;28;20036;-61
2021/12/02 01:56:09;;;;;;;19.73;4.13;;;;;;;;;;5061889;28;20027;-61
2021/12/02 01:58:43;;;;;;;25.38;3.80;;;;;;;;;;5053814;28;20037;-61
2021/12/02 02:01:22;;;;;;;23.25;3.75;;;;;;;;;;5061888;28;20106;-61
2021/12/02 02:03:50;;;;;;;15.75;3.83;;;;;;;;;;5062667;28;20024;-60
2021/12/02 02:06:29;;;;;;;17.17;3.03;;;;;;;;;;5058046;28;20024;-62
2021/12/02 02:08:57;;;;;;;20.55;4.30;;;;;;;;;;5052278;28;20071;-62
2021/12/02 02:11:29;;;;;;;14.55;3.22;;;;;;;;;;5066491;28;20016;-62
2021/12/02 02:13:56;;;;;;;23.67;4.93;;;;;;;;;;5062798;28;20035;-60
2021/12/02 02:16:23;;;;;;;8.20;2.85;;;;;;;;;;5058523;28;20194;-60
2021/12/02 02:18:49;;;;;;;17.55;2.88;;;;;;;;;;5052333;28;20429;-61
2021/12/02 02:21:18;;;;;;;16.80;2.65;;;;;;;;;;5061412;28;20032;-60
2021/12/02 02:23:56;;;;;;;16.27;3.63;;;;;;;;;;5061199;28;20028;-60
2021/12/02 02:26:26;;;;;;;20.58;2.92;;;;;;;;;;5056075;28;20039;-60
2021/12/02 02:28:53;;;;;;;16.15;3.45;;;;;;;;;;5055754;28;20021;-60
2021/12/02 02:31:18;;;;;;;22.23;3.17;;;;;;;;;;5062992;28;20123;-60
2021/12/02 02:33:49;;;;;;;14.80;2.38;;;;;;;;;;5061762;28;20629;-61
2021/12/02 02:36:16;;;;;;;24.27;3.55;;;;;;;;;;5057123;28;20111;-60
2021/12/02 02:38:44;;;;;;;14.80;2.85;;;;;;;;;;5048904;28;20025;-60
2021/12/02 02:41:11;;;;;;;17.38;2.75;;;;;;;;;;5064984;28;20112;-60
2021/12/02 02:43:37;;;;;;;21.58;2.60;;;;;;;;;;5063220;28;20138;-62
2021/12/02 02:46:03;;;;;;;27.08;2.58;;;;;;;;;;5059564;28;20505;-62
2021/12/02 02:48:32;;;;;;;18.48;2.70;;;;;;;;;;5051412;28;20059;-62
2021/12/02 02:50:57;;;;;;;24.25;2.78;;;;;;;;;;5065279;28;20508;-62
2021/12/02 02:53:24;;;;;;;25.45;2.25;;;;;;;;;;5063997;28;20136;-62
2021/12/02 02:56:07;;;;;;;19.50;2.63;;;;;;;;;;5059081;28;20119;-62
2021/12/02 03:01:06;;;;;;;23.02;2.25;;;;;;;;;;5060023;28;19916;-60
2021/12/02 03:09:50;;;;;;;18.58;2.30;;;;;;;;;;5052594;28;20033;-60
2021/12/02 03:11:57;;;;;;;19.65;2.75;;;;;;;;;;5061606;28;20111;-60
2021/12/02 03:14:47;;;;;;;8.73;1.48;;;;;;;;;;5059285;28;20025;-60
2021/12/02 03:17:14;;;;;;;16.60;1.80;;;;;;;;;;5051146;28;20402;-60
2021/12/02 03:19:41;;;;;;;12.05;2.70;;;;;;;;;;5058436;28;20394;-60
2021/12/02 03:22:08;;;;;;;13.15;1.92;;;;;;;;;;5059422;28;20814;-61
2021/12/02 03:24:34;;;;;;;11.73;1.95;;;;;;;;;;5058857;28;20478;-60
2021/12/02 03:26:59;;;;;;;11.65;1.80;;;;;;;;;;5054036;28;20032;-60
2021/12/02 03:29:25;;;;;;;20.17;2.47;;;;;;;;;;5056756;28;20099;-61
2021/12/02 03:31:50;;;;;;;25.85;3.03;;;;;;;;;;5059506;28;20025;-60
2021/12/02 03:34:16;;;;;;;27.70;2.70;;;;;;;;;;5060478;28;20028;-60
2021/12/02 03:36:42;;;;;;;9.85;1.67;;;;;;;;;;5070597;28;20052;-60
2021/12/02 03:39:10;;;;;;;15.77;2.10;;;;;;;;;;5051006;28;20170;-60
2021/12/02 03:41:38;;;;;;;13.20;1.88;;;;;;;;;;5058539;28;20017;-59
2021/12/02 03:44:04;;;;;;;16.33;2.05;;;;;;;;;;5056679;28;20052;-60
2021/12/02 03:46:29;;;;;;;18.17;2.05;;;;;;;;;;5054706;28;20032;-60
2021/12/02 03:48:55;;;;;;;10.55;1.63;;;;;;;;;;5053664;28;20049;-60
2021/12/02 03:51:21;;;;;;;14.63;1.65;;;;;;;;;;5060237;28;20082;-60
2021/12/02 03:53:47;;;;;;;21.75;2.63;;;;;;;;;;5061177;28;20029;-61
2021/12/02 03:56:14;;;;;;;25.80;2.05;;;;;;;;;;5057260;28;20040;-61
2021/12/02 03:58:43;;;;;;;18.15;2.35;;;;;;;;;;5051274;28;20079;-61
2021/12/02 04:01:09;;;;;;;9.70;2.45;;;;;;;;;;5054332;28;20498;-60
2021/12/02 04:03:35;;;;;;;21.95;2.40;;;;;;;;;;5063937;28;20111;-60
2021/12/02 04:06:01;;;;;;;18.20;2.05;;;;;;;;;;5058480;28;20051;-60
2021/12/02 04:08:42;;;;;;;25.33;3.63;;;;;;;;;;5046784;28;20493;-60
2021/12/02 04:13:46;;;;;;;13.23;1.70;;;;;;;;;;5061071;28;20431;-61
2021/12/02 04:16:16;;;;;;;11.85;1.55;;;;;;;;;;5055988;28;20033;-61
2021/12/02 04:18:42;;;;;;;14.77;1.63;;;;;;;;;;5048245;28;20047;-61
2021/12/02 04:21:08;;;;;;;15.10;2.00;;;;;;;;;;5054726;28;20033;-61
2021/12/02 04:23:33;;;;;;;10.30;2.10;;;;;;;;;;5062620;28;20032;-61
2021/12/02 04:25:58;;;;;;;14.52;2.67;;;;;;;;;;5056177;28;20033;-61
2021/12/02 04:28:24;;;;;;;13.25;1.52;;;;;;;;;;5051057;28;20024;-61
2021/12/02 04:30:49;;;;;;;10.43;1.60;;;;;;;;;;5061694;28;20106;-59
2021/12/02 04:33:15;;;;;;;10.70;1.70;;;;;;;;;;5066366;28;20039;-60
2021/12/02 04:35:40;;;;;;;18.35;2.35;;;;;;;;;;5063925;28;20043;-60
2021/12/02 04:38:06;;;;;;;17.05;3.20;;;;;;;;;;5048367;28;20025;-61
2021/12/02 04:40:32;;;;;;;21.02;3.05;;;;;;;;;;5060215;28;20498;-61
2021/12/02 04:42:57;;;;;;;21.88;3.58;;;;;;;;;;5066559;28;20119;-61
2021/12/02 04:45:23;;;;;;;16.92;3.67;;;;;;;;;;5082091;28;20436;-62
2021/12/02 04:47:48;;;;;;;17.10;2.85;;;;;;;;;;5049325;28;20223;-62
2021/12/02 04:50:14;;;;;;;8.23;1.73;;;;;;;;;;5064337;28;20103;-61
2021/12/02 04:52:40;;;;;;;19.77;1.80;;;;;;;;;;5068134;28;20127;-62
2021/12/02 04:55:06;;;;;;;7.97;1.55;;;;;;;;;;5059167;28;20036;-62
2021/12/02 04:57:32;;;;;;;12.68;2.13;;;;;;;;;;5051530;28;20024;-61
2021/12/02 04:59:57;;;;;;;18.50;2.25;;;;;;;;;;5064817;28;20032;-61
2021/12/02 05:02:23;;;;;;;16.95;2.03;;;;;;;;;;5061847;28;20407;-59
2021/12/02 05:04:48;;;;;;;13.80;1.92;;;;;;;;;;5067886;28;20115;-60
2021/12/02 05:07:14;;;;;;;14.50;2.03;;;;;;;;;;5053684;28;20038;-61
2021/12/02 05:09:39;;;;;;;27.98;2.25;;;;;;;;;;5060850;28;20073;-61
2021/12/02 05:12:05;;;;;;;16.60;1.73;;;;;;;;;;5063359;28;20163;-60
2021/12/02 05:14:31;;;;;;;6.43;2.10;;;;;;;;;;5047508;28;20025;-60
2021/12/02 05:16:56;;;;;;;14.70;2.33;;;;;;;;;;5051925;28;20036;-61
2021/12/02 05:19:22;;;;;;;14.73;2.35;;;;;;;;;;5061338;28;20128;-60
2021/12/02 05:21:47;;;;;;;19.55;2.28;;;;;;;;;;5064821;28;20024;-60
2021/12/02 05:24:13;;;;;;;7.90;2.08;;;;;;;;;;5064715;28;20028;-60
2021/12/02 05:26:38;;;;;;;8.38;1.88;;;;;;;;;;5060614;28;20094;-59
2021/12/02 05:29:04;;;;;;;14.35;1.75;;;;;;;;;;5052700;28;20020;-60
2021/12/02 05:31:30;;;;;;;14.55;1.95;;;;;;;;;;5065768;28;20033;-59
2021/12/02 05:33:55;;;;;;;16.42;1.92;;;;;;;;;;5062574;28;20040;-60
2021/12/02 05:36:21;;;;;;;12.43;3.20;;;;;;;;;;5057220;28;20029;-60
2021/12/02 05:38:46;;;;;;;7.95;1.85;;;;;;;;;;5055322;28;20036;-60
2021/12/02 05:41:15;;;;;;;14.52;1.90;;;;;;;;;;5062270;28;20033;-60
2021/12/02 05:43:41;;;;;;;17.75;2.47;;;;;;;;;;5067416;28;22408;-60
2021/12/02 05:46:08;;;;;;;14.02;1.90;;;;;;;;;;5055719;28;20388;-57
2021/12/02 05:48:33;;;;;;;7.97;1.90;;;;;;;;;;5057974;28;20040;-60
2021/12/02 05:50:59;;;;;;;10.77;2.75;;;;;;;;;;5063392;28;20041;-60
2021/12/02 05:53:25;;;;;;;17.70;1.75;;;;;;;;;;5064154;28;20033;-59
2021/12/02 05:55:51;;;;;;;11.10;2.30;;;;;;;;;;5060847;28;20364;-59
2021/12/02 05:58:17;;;;;;;7.20;2.38;;;;;;;;;;5049681;28;20029;-60
2021/12/02 06:00:42;;;;;;;13.55;1.23;;;;;;;;;;5065245;28;20043;-60
2021/12/02 06:03:08;;;;;;;15.60;2.40;;;;;;;;;;5058075;28;20032;-60
2021/12/02 06:05:34;;;;;;;12.25;1.65;;;;;;;;;;5059268;28;20082;-60
2021/12/02 06:08:02;;;;;;;8.15;1.83;;;;;;;;;;5048571;28;20106;-60
2021/12/02 06:10:29;;;;;;;12.13;1.83;;;;;;;;;;5064810;28;20036;-61
2021/12/02 06:12:55;;;;;;;10.23;1.55;;;;;;;;;;5063205;28;20035;-60
2021/12/02 06:15:20;;;;;;;8.70;1.58;;;;;;;;;;5066657;28;20027;-60
2021/12/02 06:17:46;;;;;;;12.50;1.63;;;;;;;;;;5047909;28;20032;-60
2021/12/02 06:20:14;;;;;;;15.38;2.13;;;;;;;;;;5060242;28;20032;-60
2021/12/02 06:22:41;;;;;;;16.80;2.28;;;;;;;;;;5062947;28;20048;-59
2021/12/02 06:27:42;;;;;;;9.75;1.23;;;;;;;;;;5047474;28;20029;-59
2021/12/02 06:30:08;;;;;;;12.98;1.55;;;;;;;;;;5060821;28;20048;-60
2021/12/02 06:32:34;;;;;;;9.80;1.85;;;;;;;;;;5060323;28;20090;-60
2021/12/02 06:34:59;;;;;;;7.80;1.50;;;;;;;;;;5063113;28;20032;-61
2021/12/02 06:37:25;;;;;;;5.70;1.73;;;;;;;;;;5048269;28;20056;-61
2021/12/02 06:39:51;;;;;;;15.70;1.80;;;;;;;;;;5063110;28;20030;-61
2021/12/02 06:42:17;;;;;;;9.43;1.17;;;;;;;;;;5056236;28;20116;-60
2021/12/02 06:44:43;;;;;;;12.30;1.77;;;;;;;;;;5064948;28;20037;-59
2021/12/02 06:47:08;;;;;;;12.60;1.55;;;;;;;;;;5053862;28;20539;-60
2021/12/02 06:49:35;;;;;;;8.77;1.65;;;;;;;;;;5058842;28;20043;-59
2021/12/02 06:52:01;;;;;;;11.63;2.08;;;;;;;;;;5064508;28;20055;-60
2021/12/02 06:54:26;;;;;;;3.53;1.08;;;;;;;;;;5062885;28;20040;-60
2021/12/02 06:56:52;;;;;;;11.63;1.52;;;;;;;;;;5049909;28;20552;-61
2021/12/02 06:59:19;;;;;;;17.60;1.77;;;;;;;;;;5058395;28;20027;-61
2021/12/02 07:01:45;;;;;;;11.20;1.25;;;;;;;;;;5055293;28;20025;-61
2021/12/02 07:04:12;;;;;;;7.65;1.58;;;;;;;;;;5061955;28;20042;-61
2021/12/02 07:06:39;;;;;;;9.52;1.40;;;;;;;;;;5060768;28;20296;-60
2021/12/02 07:09:05;;;;;;;13.60;1.35;;;;;;;;;;5059507;28;20040;-61
2021/12/02 07:11:31;;;;;;;15.52;1.60;;;;;;;;;;5057840;28;20031;-61
2021/12/02 07:14:02;;;;;;;6.00;1.17;;;;;;;;;;5062550;28;20052;-61
2021/12/02 07:16:27;;;;;;;18.15;1.50;;;;;;;;;;5058614;28;20028;-62
2021/12/02 07:18:55;;;;;;;15.73;2.15;;;;;;;;;;5052907;28;20035;-61
2021/12/02 07:21:20;;;;;;;16.67;1.45;;;;;;;;;;5063930;28;20036;-61
2021/12/02 07:23:46;;;;;;;12.50;1.63;;;;;;;;;;5064412;28;20055;-61
2021/12/02 07:26:12;;;;;;;13.50;2.08;;;;;;;;;;5060245;28;20406;-61
2021/12/02 07:28:37;;;;;;;15.52;2.00;;;;;;;;;;5050566;28;20021;-60
2021/12/02 07:31:05;;;;;;;12.93;2.15;;;;;;;;;;5063820;28;20039;-60
2021/12/02 07:33:36;;;;;;;14.32;1.63;;;;;;;;;;5062510;28;20471;-60
2021/12/02 07:36:03;;;;;;;15.25;2.08;;;;;;;;;;5059304;28;20056;-61
2021/12/02 07:38:29;;;;;;;12.07;1.67;;;;;;;;;;5049239;28;20041;-60
2021/12/02 07:40:57;;;;;;;11.45;2.72;;;;;;;;;;5061718;28;20032;-61
2021/12/02 07:43:23;;;;;;;9.90;1.95;;;;;;;;;;5060066;28;20080;-61
2021/12/02 07:45:48;;;;;;;17.23;3.08;;;;;;;;;;5056561;28;20648;-60
2021/12/02 07:48:15;;;;;;;7.47;1.83;;;;;;;;;;5040263;28;20493;-60
2021/12/02 07:50:41;;;;;;;10.45;2.33;;;;;;;;;;5060276;28;20458;-60
2021/12/02 07:53:08;;;;;;;7.78;1.35;;;;;;;;;;5057589;28;20298;-60
2021/12/02 07:55:37;;;;;;;13.98;1.45;;;;;;;;;;5061478;28;20048;-60
2021/12/02 07:58:05;;;;;;;9.23;1.27;;;;;;;;;;5045079;28;20024;-60
2021/12/02 08:00:31;;;;;;;16.23;2.00;;;;;;;;;;5058382;28;20384;-60
2021/12/02 08:02:57;;;;;;;6.30;1.08;;;;;;;;;;5057248;28;20036;-60
2021/12/02 08:05:24;;;;;;;5.78;1.60;;;;;;;;;;5059566;28;20097;-60
2021/12/02 08:07:51;;;;;;;16.48;2.53;;;;;;;;;;5044328;28;20024;-60
2021/12/02 08:10:18;;;;;;;15.52;3.30;;;;;;;;;;5058583;28;20529;-60
2021/12/02 08:12:47;;;;;;;9.23;3.13;;;;;;;;;;5061808;28;20051;-62
2021/12/02 08:15:14;;;;;;;7.65;2.30;;;;;;;;;;5061520;28;20037;-61
2021/12/02 08:17:40;;;;;;;26.15;3.50;;;;;;;;;;5045328;28;20024;-65
2021/12/02 08:20:06;;;;;;;17.63;3.88;;;;;;;;;;5057810;28;20418;-65
2021/12/02 08:22:32;;;;;;;6.93;2.47;;;;;;;;;;5059231;28;20021;-64
2021/12/02 08:24:58;;;;;;;12.50;2.55;;;;;;;;;;5063368;28;20408;-65
2021/12/02 08:27:24;;;;;;;9.45;2.72;;;;;;;;;;5051925;28;20456;-66
2021/12/02 08:29:50;;;;;;;8.77;2.38;;;;;;;;;;5058988;28;20507;-64
2021/12/02 08:32:15;;;;;;;15.27;2.78;;;;;;;;;;5061513;28;20037;-64
2021/12/02 08:34:41;;;;;;;26.83;4.65;;;;;;;;;;5065942;28;20115;-64
2021/12/02 08:37:08;;;;;;;27.05;4.30;;;;;;;;;;5051615;28;20326;-66
2021/12/02 08:39:34;;;;;;;17.90;3.85;;;;;;;;;;5059460;28;20036;-64
2021/12/02 08:42:02;;;;;;;13.65;4.25;;;;;;;;;;5044379;28;20119;-63
2021/12/02 08:44:30;;;;;;;18.58;3.42;;;;;;;;;;5056255;28;20212;-62
2021/12/02 08:46:56;;;;;;;15.18;4.07;;;;;;;;;;5051931;28;20032;-62
2021/12/02 08:49:22;;;;;;;14.82;3.25;;;;;;;;;;5054965;28;20041;-64
2021/12/02 08:51:49;;;;;;;19.40;3.15;;;;;;;;;;5062696;28;20040;-62
2021/12/02 08:54:15;;;;;;;14.68;5.18;;;;;;;;;;5063162;28;20064;-62
2021/12/02 08:56:41;;;;;;;14.57;4.30;;;;;;;;;;5052497;28;20495;-63
2021/12/02 08:59:07;;;;;;;13.23;5.25;;;;;;;;;;5052781;28;20041;-62
2021/12/02 09:01:33;;;;;;;14.55;4.05;;;;;;;;;;5060812;28;20437;-62
2021/12/02 09:04:00;;;;;;;10.98;2.85;;;;;;;;;;5060613;28;20031;-63
2021/12/02 09:06:25;;;;;;;15.82;4.55;;;;;;;;;;5053999;28;20029;-63
2021/12/02 09:08:57;;;;;;;24.67;2.72;;;;;;;;;;5050133;28;20017;-64
2021/12/02 09:11:23;;;;;;;14.00;3.20;;;;;;;;;;5060095;28;20028;-64
2021/12/02 09:13:49;;;;;;;17.88;3.05;;;;;;;;;;5060982;28;20059;-63
2021/12/02 09:16:14;;;;;;;22.42;3.00;;;;;;;;;;5062429;28;20737;-64
2021/12/02 09:18:40;;;;;;;13.18;2.03;;;;;;;;;;5060857;28;20029;-63
2021/12/02 09:21:06;;;;;;;12.25;2.08;;;;;;;;;;5062258;28;20047;-64
2021/12/02 09:23:32;;;;;;;8.27;2.15;;;;;;;;;;5066486;28;20027;-64
2021/12/02 09:25:58;;;;;;;13.98;2.33;;;;;;;;;;5067368;28;20028;-62
2021/12/02 09:28:25;;;;;;;11.00;2.50;;;;;;;;;;5052003;28;20052;-63
2021/12/02 09:30:50;;;;;;;14.43;2.55;;;;;;;;;;5064492;28;20039;-63
2021/12/02 09:33:16;;;;;;;14.85;2.15;;;;;;;;;;5065156;28;20032;-63
2021/12/02 09:35:41;;;;;;;15.90;2.13;;;;;;;;;;5066140;28;20035;-63
2021/12/02 09:38:08;;;;;;;11.65;2.70;;;;;;;;;;5052068;28;20043;-63
2021/12/02 09:40:35;;;;;;;12.50;2.45;;;;;;;;;;5068558;28;20024;-63
2021/12/02 09:43:01;;;;;;;27.63;2.53;;;;;;;;;;5051703;28;20153;-63
2021/12/02 09:45:27;;;;;;;23.30;3.25;;;;;;;;;;5065903;28;20032;-63
2021/12/02 09:47:54;;;;;;;21.25;3.67;;;;;;;;;;5048233;28;20510;-61
2021/12/02 09:50:26;;;;;;;25.25;4.18;;;;;;;;;;5062005;28;20091;-62
2021/12/02 09:52:53;;;;;;;16.08;2.00;;;;;;;;;;5067589;28;20586;-62
2021/12/02 09:57:50;;;;;;;6.57;1.77;;;;;;;;;;5053149;28;20017;-62
2021/12/02 10:00:20;;;;;;;11.02;2.22;;;;;;;;;;5067414;28;20020;-63
2021/12/02 10:03:01;;;;;;;12.70;1.65;;;;;;;;;;5066045;28;20107;-63
2021/12/02 10:05:38;;;;;;;13.57;2.22;;;;;;;;;;5065972;28;20046;-63
2021/12/02 10:08:07;;;;;;;9.45;1.75;;;;;;;;;;5051431;28;20071;-63
2021/12/02 10:10:38;;;;;;;10.13;1.75;;;;;;;;;;5063513;28;20028;-62
2021/12/02 10:13:27;;;;;;;12.27;2.05;;;;;;;;;;5060959;28;20375;-61
2021/12/02 10:16:15;;;;;;;24.05;2.25;;;;;;;;;;5064517;28;20044;-63
2021/12/02 10:19:02;;;;;;;12.57;2.33;;;;;;;;;;5055268;28;20085;-62
2021/12/02 10:21:41;;;;;;;13.88;2.38;;;;;;;;;;5064122;28;20039;-62
2021/12/02 10:24:14;;;;;;;20.65;2.85;;;;;;;;;;5063091;28;20111;-62
2021/12/02 10:26:42;;;;;;;8.75;1.95;;;;;;;;;;5059394;28;20036;-63
2021/12/02 10:29:15;;;;;;;4.63;1.38;;;;;;;;;;5051371;28;20029;-63
2021/12/02 10:31:43;;;;;;;16.08;2.92;;;;;;;;;;5062030;28;20373;-63
2021/12/02 10:34:09;;;;;;;18.70;2.42;;;;;;;;;;5069051;28;20142;-63
2021/12/02 10:36:43;;;;;;;25.52;3.20;;;;;;;;;;5059178;28;20487;-63
2021/12/02 10:39:19;;;;;;;9.73;2.65;;;;;;;;;;5056089;28;20021;-63
2021/12/02 10:41:56;;;;;;;18.92;3.22;;;;;;;;;;5063878;28;20116;-63
2021/12/02 10:44:24;;;;;;;15.15;3.00;;;;;;;;;;5078213;28;20028;-65
2021/12/02 10:46:54;;;;;;;18.33;2.65;;;;;;;;;;5053332;28;20036;-66
2021/12/02 10:49:21;;;;;;;8.55;2.30;;;;;;;;;;5057132;28;20048;-65
2021/12/02 10:51:50;;;;;;;16.00;2.00;;;;;;;;;;5060720;28;20031;-65
2021/12/02 10:54:29;;;;;;;14.77;2.05;;;;;;;;;;5064699;28;20052;-63
2021/12/02 10:57:06;;;;;;;15.55;2.28;;;;;;;;;;5056071;28;20115;-62
2021/12/02 10:59:36;;;;;;;19.95;2.47;;;;;;;;;;5059810;28;20021;-64
2021/12/02 11:02:19;;;;;;;7.10;1.90;;;;;;;;;;5066191;28;20437;-66
2021/12/02 11:05:05;;;;;;;18.40;2.47;;;;;;;;;;5067935;28;20036;-64
2021/12/02 11:07:33;;;;;;;13.73;2.00;;;;;;;;;;5052189;28;20039;-64
2021/12/02 11:10:02;;;;;;;7.60;1.70;;;;;;;;;;5066561;28;20031;-64
2021/12/02 11:12:34;;;;;;;13.48;2.05;;;;;;;;;;5065221;28;20025;-64
2021/12/02 11:15:12;;;;;;;19.05;1.88;;;;;;;;;;5061063;28;20066;-65
2021/12/02 11:17:42;;;;;;;9.98;2.10;;;;;;;;;;5046298;28;20594;-65
2021/12/02 11:20:12;;;;;;;15.02;2.50;;;;;;;;;;5059919;28;20031;-64
2021/12/02 11:22:37;;;;;;;14.35;1.80;;;;;;;;;;5064582;28;20051;-64
2021/12/02 11:25:07;;;;;;;18.88;2.20;;;;;;;;;;5062066;28;20048;-64
2021/12/02 11:27:39;;;;;;;12.38;1.50;;;;;;;;;;5050659;28;20063;-64
2021/12/02 11:30:20;;;;;;;18.38;1.88;;;;;;;;;;5062608;28;20032;-63
2021/12/02 11:32:52;;;;;;;7.68;1.67;;;;;;;;;;5065459;28;20658;-63
2021/12/02 11:35:39;;;;;;;24.02;2.80;;;;;;;;;;5066241;28;20024;-63
2021/12/02 11:38:17;;;;;;;9.27;2.08;;;;;;;;;;5046680;28;20118;-63
2021/12/02 11:40:51;;;;;;;17.05;2.22;;;;;;;;;;5064775;28;20112;-63
2021/12/02 11:43:20;;;;;;;13.60;2.30;;;;;;;;;;5063054;28;20506;-63
2021/12/02 11:45:49;;;;;;;20.63;2.33;;;;;;;;;;5063711;28;20384;-63
2021/12/02 11:48:21;;;;;;;12.55;2.13;;;;;;;;;;5047333;28;20383;-63
2021/12/02 11:50:49;;;;;;;14.60;3.40;;;;;;;;;;5061200;28;20027;-64
2021/12/02 11:53:21;;;;;;;17.30;2.85;;;;;;;;;;5063076;28;20041;-63
2021/12/02 11:55:47;;;;;;;19.85;2.65;;;;;;;;;;5065070;28;20033;-63
2021/12/02 11:58:12;;;;;;;13.63;2.10;;;;;;;;;;5046978;28;20036;-67
2021/12/02 12:00:38;;;;;;;17.45;2.55;;;;;;;;;;5061132;28;20403;-64
2021/12/02 12:03:27;;;;;;;22.75;2.40;;;;;;;;;;5061182;28;20040;-63
2021/12/02 12:06:01;;;;;;;17.67;2.88;;;;;;;;;;5064903;28;20119;-64
2021/12/02 12:08:38;;;;;;;16.13;2.35;;;;;;;;;;5048740;28;20031;-63
2021/12/02 12:11:30;;;;;;;7.90;1.77;;;;;;;;;;5055874;28;20500;-63
2021/12/02 12:14:07;;;;;;;11.25;2.08;;;;;;;;;;5058744;28;20032;-64
2021/12/02 12:16:51;;;;;;;26.30;2.78;;;;;;;;;;5057971;28;20441;-62
2021/12/02 12:19:16;;;;;;;22.52;3.17;;;;;;;;;;5056288;28;20453;-65
2021/12/02 12:21:47;;;;;;;10.23;2.05;;;;;;;;;;5063688;28;20079;-65
2021/12/02 12:24:15;;;;;;;9.10;1.52;;;;;;;;;;5065082;28;20115;-65
2021/12/02 12:26:45;;;;;;;12.98;1.88;;;;;;;;;;5058218;28;20021;-65
2021/12/02 12:29:12;;;;;;;14.02;2.25;;;;;;;;;;5060947;28;20497;-66
2021/12/02 12:32:35;;;;;;;25.73;2.55;;;;;;;;;;5062261;28;20460;-64
2021/12/02 12:34:43;;;;;;;11.10;1.50;;;;;;;;;;5057911;28;20398;-64
2021/12/02 12:37:25;;;;;;;11.43;2.10;;;;;;;;;;5048972;28;20021;-65
2021/12/02 12:40:09;;;;;;;12.10;1.98;;;;;;;;;;5061962;28;20020;-65
2021/12/02 12:42:36;;;;;;;22.40;3.17;;;;;;;;;;5063760;28;20063;-65
2021/12/02 12:45:04;;;;;;;14.23;1.67;;;;;;;;;;5064017;28;20024;-65
2021/12/02 12:47:51;;;;;;;14.43;2.28;;;;;;;;;;5048289;28;20107;-63
2021/12/02 12:50:30;;;;;;;16.58;2.10;;;;;;;;;;5066960;28;20048;-64
2021/12/02 12:53:02;;;;;;;29.30;2.50;;;;;;;;;;5084422;28;20034;-65
2021/12/02 12:55:28;;;;;;;18.58;2.25;;;;;;;;;;5064199;28;20029;-61
2021/12/02 12:58:14;;;;;;;14.85;1.83;;;;;;;;;;5048605;28;20048;-61
2021/12/02 13:00:39;;;;;;;15.57;2.22;;;;;;;;;;5069777;28;20487;-62
2021/12/02 13:03:17;;;;;;;16.10;2.38;;;;;;;;;;5066628;28;20043;-63
2021/12/02 13:05:54;;;;;;;12.38;2.25;;;;;;;;;;5068007;28;20379;-63
2021/12/02 13:08:30;;;;;;;25.98;2.63;;;;;;;;;;5049721;28;20029;-63
2021/12/02 13:10:59;;;;;;;19.15;1.88;;;;;;;;;;5065748;28;20042;-62
2021/12/02 13:13:34;;;;;;;16.42;2.05;;;;;;;;;;5062454;28;20035;-63
2021/12/02 13:16:20;;;;;;;16.67;2.35;;;;;;;;;;5060574;28;20036;-63
2021/12/02 13:18:51;;;;;;;10.90;2.25;;;;;;;;;;5048728;28;20047;-63
2021/12/02 13:21:21;;;;;;;23.23;3.45;;;;;;;;;;5063842;28;20439;-61
2021/12/02 13:24:19;;;;;;;9.57;2.55;;;;;;;;;;5066773;28;20109;-62
2021/12/02 13:26:55;;;;;;;12.55;2.95;;;;;;;;;;5044678;28;20043;-62
2021/12/02 13:29:28;;;;;;;15.02;4.35;;;;;;;;;;5062919;28;20381;-62
2021/12/02 13:31:57;;;;;;;20.25;3.53;;;;;;;;;;5069524;28;20403;-62
2021/12/02 13:34:26;;;;;;;19.25;3.80;;;;;;;;;;5066616;28;20036;-62
2021/12/02 13:36:55;;;;;;;24.10;3.88;;;;;;;;;;5051410;28;20433;-62
2021/12/02 13:39:29;;;;;;;22.10;3.25;;;;;;;;;;5058979;28;20032;-62
2021/12/02 13:42:12;;;;;;;19.55;3.60;;;;;;;;;;5068245;28;20411;-62
2021/12/02 13:44:49;;;;;;;15.32;3.55;;;;;;;;;;5061857;28;20033;-62
2021/12/02 13:47:20;;;;;;;17.60;3.92;;;;;;;;;;5050993;28;20506;-63
2021/12/02 13:49:51;;;;;;;10.43;2.90;;;;;;;;;;5066289;28;20052;-62
2021/12/02 13:52:32;;;;;;;28.58;3.47;;;;;;;;;;5082166;28;20037;-64
2021/12/02 13:55:02;;;;;;;11.80;2.13;;;;;;;;;;5062353;28;20039;-61
2021/12/02 13:57:38;;;;;;;23.00;3.03;;;;;;;;;;5053178;28;20020;-63
2021/12/02 14:00:25;;;;;;;22.73;5.63;;;;;;;;;;5068287;28;20033;-63
2021/12/02 14:02:58;;;;;;;22.58;3.67;;;;;;;;;;5066351;28;20035;-62
2021/12/02 14:05:26;;;;;;;14.00;2.95;;;;;;;;;;5059787;28;20028;-62
2021/12/02 14:07:53;;;;;;;19.08;3.65;;;;;;;;;;5048826;28;20033;-62
2021/12/02 14:10:22;;;;;;;16.85;3.65;;;;;;;;;;5063557;28;20040;-62
2021/12/02 14:12:54;;;;;;;25.10;4.28;;;;;;;;;;5060706;28;20037;-63
2021/12/02 14:15:41;;;;;;;16.67;3.10;;;;;;;;;;5059069;28;20046;-63
2021/12/02 14:18:08;;;;;;;10.80;3.20;;;;;;;;;;5048615;28;20270;-62
2021/12/02 14:20:50;;;;;;;17.00;3.45;;;;;;;;;;5067532;28;20586;-62
2021/12/02 14:23:30;;;;;;;19.67;3.05;;;;;;;;;;5062499;28;20217;-62
2021/12/02 14:26:00;;;;;;;17.90;3.03;;;;;;;;;;5062366;28;20032;-62
2021/12/02 14:28:26;;;;;;;11.85;3.15;;;;;;;;;;5054628;28;20055;-62
2021/12/02 14:30:56;;;;;;;15.25;2.00;;;;;;;;;;5066303;28;20060;-62
2021/12/02 14:33:35;;;;;;;16.02;2.92;;;;;;;;;;5062294;28;20477;-62
2021/12/02 14:36:15;;;;;;;11.73;2.35;;;;;;;;;;5061212;28;20020;-63
2021/12/02 14:38:43;;;;;;;18.70;3.25;;;;;;;;;;5047540;28;20031;-63
2021/12/02 14:41:15;;;;;;;13.13;2.58;;;;;;;;;;5068495;28;20032;-63
2021/12/02 14:43:48;;;;;;;15.13;2.20;;;;;;;;;;5060793;28;20029;-63
2021/12/02 14:46:19;;;;;;;19.42;3.00;;;;;;;;;;5055536;28;20040;-63
2021/12/02 14:48:57;;;;;;;15.68;2.22;;;;;;;;;;5055139;28;20156;-63
2021/12/02 14:51:22;;;;;;;19.27;2.90;;;;;;;;;;5064841;28;20107;-63
2021/12/02 14:53:54;;;;;;;16.55;2.20;;;;;;;;;;5063740;28;20538;-63
2021/12/02 14:56:23;;;;;;;28.50;2.50;;;;;;;;;;5056378;28;20103;-63
2021/12/02 14:59:14;;;;;;;18.50;2.72;;;;;;;;;;5052311;28;20449;-62
2021/12/02 15:02:10;;;;;;;14.27;2.33;;;;;;;;;;5062238;28;20457;-62
2021/12/02 15:04:49;;;;;;;17.35;2.78;;;;;;;;;;5058128;28;20024;-63
2021/12/02 15:07:22;;;;;;;19.73;2.53;;;;;;;;;;5052331;28;20063;-64